createdAt,value
2024-03-28T00:00:38.785Z,0.00
2024-03-28T00:01:39.095Z,0.00
2024-03-28T00:02:38.347Z,0.00
2024-03-28T00:03:38.804Z,0.01
2024-03-28T00:04:38.980Z,0.00
2024-03-28T00:05:38.295Z,0.00
2024-03-28T00:06:38.586Z,0.00
2024-03-28T00:07:38.929Z,0.00
2024-03-28T00:08:38.207Z,0.00
2024-03-28T00:09:38.542Z,0.02
2024-03-28T00:10:38.909Z,0.05
2024-03-28T00:11:38.123Z,0.00
2024-03-28T00:12:38.449Z,0.00
2024-03-28T00:13:38.785Z,0.00
2024-03-28T00:14:38.052Z,0.06
2024-03-28T00:15:38.390Z,0.02
2024-03-28T00:16:38.734Z,0.02
2024-03-28T00:17:37.966Z,0.00
2024-03-28T00:18:38.286Z,0.00
2024-03-28T00:19:39.572Z,0.02
2024-03-28T00:20:38.946Z,0.02
2024-03-28T00:21:38.253Z,0.00
2024-03-28T00:22:38.581Z,0.00
2024-03-28T00:23:37.912Z,0.02
2024-03-28T00:24:39.234Z,0.00
2024-03-28T00:25:38.611Z,0.00
2024-03-28T00:26:37.929Z,0.00
2024-03-28T00:27:39.193Z,0.00
2024-03-28T00:28:38.584Z,0.02
2024-03-28T00:29:37.854Z,0.02
2024-03-28T00:30:38.176Z,0.00
2024-03-28T00:31:38.558Z,0.00
2024-03-28T00:32:37.818Z,0.05
2024-03-28T00:33:38.144Z,0.04
2024-03-28T00:34:38.476Z,0.00
2024-03-28T00:35:37.761Z,0.00
2024-03-28T00:36:38.065Z,0.00
2024-03-28T00:37:38.388Z,0.02
2024-03-28T00:38:38.709Z,0.01
2024-03-28T00:39:38.031Z,0.00
2024-03-28T00:40:38.691Z,0.02
2024-03-28T00:41:38.654Z,0.02
2024-03-28T00:42:38.934Z,0.02
2024-03-28T00:43:38.271Z,0.02
2024-03-28T00:44:38.624Z,0.01
2024-03-28T00:45:37.898Z,0.00
2024-03-28T00:46:38.235Z,0.00
2024-03-28T00:47:38.579Z,0.01
2024-03-28T00:48:37.919Z,0.00
2024-03-28T00:49:38.210Z,0.00
2024-03-28T00:50:38.852Z,0.00
2024-03-28T00:51:37.831Z,0.00
2024-03-28T00:52:38.189Z,0.00
2024-03-28T00:53:37.602Z,0.02
2024-03-28T00:54:37.936Z,0.00
2024-03-28T00:55:38.345Z,0.01
2024-03-28T00:56:37.555Z,0.00
2024-03-28T00:57:37.871Z,0.00
2024-03-28T00:58:38.230Z,0.00
2024-03-28T00:59:38.478Z,0.02
2024-03-28T01:00:37.889Z,0.00
2024-03-28T01:01:39.132Z,0.06
2024-03-28T01:02:39.496Z,0.00
2024-03-28T01:03:37.813Z,0.00
2024-03-28T01:04:38.134Z,0.00
2024-03-28T01:05:37.425Z,0.02
2024-03-28T01:06:37.791Z,0.02
2024-03-28T01:07:38.150Z,0.00
2024-03-28T01:08:37.431Z,0.00
2024-03-28T01:09:38.274Z,0.00
2024-03-28T01:10:38.143Z,0.00
2024-03-28T01:11:37.467Z,0.02
2024-03-28T01:12:37.739Z,0.00
2024-03-28T01:13:38.070Z,0.00
2024-03-28T01:14:37.403Z,0.00
2024-03-28T01:15:37.761Z,0.00
2024-03-28T01:16:38.077Z,0.00
2024-03-28T01:17:37.401Z,0.00
2024-03-28T01:18:37.746Z,0.00
2024-03-28T01:19:39.046Z,0.02
2024-03-28T01:20:37.409Z,0.01
2024-03-28T01:21:37.786Z,0.00
2024-03-28T01:22:37.098Z,0.02
2024-03-28T01:23:37.429Z,0.01
2024-03-28T01:24:37.790Z,0.02
2024-03-28T01:25:37.075Z,0.02
2024-03-28T01:26:37.441Z,0.02
2024-03-28T01:27:37.815Z,0.00
2024-03-28T01:28:37.114Z,0.00
2024-03-28T01:29:37.453Z,0.02
2024-03-28T01:30:37.810Z,0.02
2024-03-28T01:31:37.107Z,0.02
2024-03-28T01:32:37.483Z,0.00
2024-03-28T01:33:37.888Z,0.02
2024-03-28T01:34:37.174Z,0.01
2024-03-28T01:35:37.524Z,0.02
2024-03-28T01:36:37.858Z,0.00
2024-03-28T01:37:37.160Z,0.02
2024-03-28T01:38:37.477Z,0.00
2024-03-28T01:39:37.849Z,0.00
2024-03-28T01:40:37.098Z,0.00
2024-03-28T01:41:37.432Z,0.00
2024-03-28T01:42:37.766Z,0.02
2024-03-28T01:43:37.061Z,0.00
2024-03-28T01:44:37.393Z,0.00
2024-03-28T01:45:37.706Z,0.02
2024-03-28T01:46:43.592Z,0.01
2024-03-28T01:47:48.738Z,0.00
2024-03-28T01:48:38.676Z,0.00
2024-03-28T01:49:36.957Z,0.02
2024-03-28T01:50:37.317Z,0.02
2024-03-28T01:51:36.824Z,0.00
2024-03-28T01:52:37.136Z,0.02
2024-03-28T01:53:37.467Z,0.02
2024-03-28T01:54:36.747Z,0.00
2024-03-28T01:55:37.070Z,0.00
2024-03-28T01:56:37.348Z,0.02
2024-03-28T01:57:36.618Z,0.00
2024-03-28T01:58:36.933Z,0.00
2024-03-28T01:59:37.257Z,0.00
2024-03-28T02:00:37.608Z,0.02
2024-03-28T02:01:36.855Z,0.00
2024-03-28T02:02:37.173Z,0.00
2024-03-28T02:03:37.501Z,0.02
2024-03-28T02:04:36.771Z,0.02
2024-03-28T02:05:37.140Z,0.02
2024-03-28T02:06:37.439Z,0.00
2024-03-28T02:07:36.696Z,0.02
2024-03-28T02:08:37.013Z,0.02
2024-03-28T02:09:37.309Z,0.00
2024-03-28T02:10:36.615Z,0.00
2024-03-28T02:11:36.959Z,0.02
2024-03-28T02:12:37.279Z,0.02
2024-03-28T02:13:36.502Z,0.00
2024-03-28T02:14:36.823Z,0.00
2024-03-28T02:15:37.153Z,0.02
2024-03-28T02:16:36.464Z,0.00
2024-03-28T02:17:36.783Z,0.00
2024-03-28T02:18:37.113Z,0.00
2024-03-28T02:19:36.397Z,0.00
2024-03-28T02:20:36.737Z,0.02
2024-03-28T02:21:37.060Z,0.01
2024-03-28T02:22:36.385Z,0.00
2024-03-28T02:23:36.744Z,0.02
2024-03-28T02:24:37.075Z,0.00
2024-03-28T02:25:36.402Z,0.02
2024-03-28T02:26:36.726Z,0.02
2024-03-28T02:27:37.086Z,0.02
2024-03-28T02:28:36.353Z,0.00
2024-03-28T02:29:36.694Z,0.02
2024-03-28T02:30:37.047Z,0.00
2024-03-28T02:31:36.332Z,0.00
2024-03-28T02:32:36.713Z,0.02
2024-03-28T02:33:37.084Z,0.02
2024-03-28T02:34:36.354Z,0.02
2024-03-28T02:35:36.677Z,0.00
2024-03-28T02:36:37.019Z,0.00
2024-03-28T02:37:36.334Z,0.00
2024-03-28T02:38:36.663Z,0.02
2024-03-28T02:39:36.960Z,0.00
2024-03-28T02:40:36.240Z,0.00
2024-03-28T02:41:36.574Z,0.00
2024-03-28T02:42:36.911Z,0.02
2024-03-28T02:43:36.213Z,0.00
2024-03-28T02:44:36.557Z,0.02
2024-03-28T02:45:36.873Z,0.00
2024-03-28T02:46:36.163Z,0.00
2024-03-28T02:47:36.487Z,0.00
2024-03-28T02:48:36.814Z,0.00
2024-03-28T02:49:36.134Z,0.00
2024-03-28T02:50:36.448Z,0.00
2024-03-28T02:51:36.777Z,0.02
2024-03-28T02:52:36.062Z,0.00
2024-03-28T02:53:36.396Z,0.00
2024-03-28T02:54:36.757Z,0.02
2024-03-28T02:55:36.055Z,0.00
2024-03-28T02:56:36.348Z,0.00
2024-03-28T02:57:36.688Z,0.00
2024-03-28T02:58:35.975Z,0.02
2024-03-28T02:59:36.312Z,0.00
2024-03-28T03:00:36.688Z,0.02
2024-03-28T03:01:35.959Z,0.01
2024-03-28T03:02:36.284Z,0.00
2024-03-28T03:03:36.626Z,0.00
2024-03-28T03:04:35.911Z,0.02
2024-03-28T03:05:36.286Z,0.02
2024-03-28T03:06:36.628Z,0.00
2024-03-28T03:07:35.887Z,0.00
2024-03-28T03:08:36.230Z,0.02
2024-03-28T03:09:36.530Z,0.00
2024-03-28T03:10:35.856Z,0.02
2024-03-28T03:11:37.150Z,0.00
2024-03-28T03:12:36.535Z,0.00
2024-03-28T03:13:35.850Z,0.00
2024-03-28T03:14:36.206Z,0.02
2024-03-28T03:15:36.565Z,0.02
2024-03-28T03:16:35.861Z,0.02
2024-03-28T03:17:36.170Z,0.02
2024-03-28T03:18:36.579Z,0.00
2024-03-28T03:19:35.846Z,0.01
2024-03-28T03:20:36.221Z,0.00
2024-03-28T03:21:35.513Z,0.02
2024-03-28T03:22:35.866Z,0.01
2024-03-28T03:23:36.213Z,0.00
2024-03-28T03:24:35.511Z,0.02
2024-03-28T03:25:35.874Z,0.02
2024-03-28T03:26:36.182Z,0.02
2024-03-28T03:27:35.513Z,0.00
2024-03-28T03:28:35.851Z,0.00
2024-03-28T03:29:36.230Z,0.00
2024-03-28T03:30:35.492Z,0.00
2024-03-28T03:31:35.881Z,0.00
2024-03-28T03:32:36.227Z,0.00
2024-03-28T03:33:35.524Z,0.02
2024-03-28T03:34:35.854Z,0.00
2024-03-28T03:35:36.157Z,0.02
2024-03-28T03:36:35.455Z,0.02
2024-03-28T03:37:35.842Z,0.00
2024-03-28T03:38:36.107Z,0.00
2024-03-28T03:39:35.428Z,0.00
2024-03-28T03:40:35.385Z,0.00
2024-03-28T03:41:35.724Z,0.00
2024-03-28T03:42:36.072Z,0.02
2024-03-28T03:44:35.683Z,0.00
2024-03-28T03:45:36.000Z,0.00
2024-03-28T03:46:35.307Z,0.00
2024-03-28T03:47:35.713Z,0.00
2024-03-28T03:48:35.973Z,0.00
2024-03-28T03:49:35.351Z,0.00
2024-03-28T03:50:35.655Z,0.01
2024-03-28T03:51:36.128Z,0.00
2024-03-28T03:52:35.298Z,0.00
2024-03-28T03:53:35.648Z,0.00
2024-03-28T03:54:36.030Z,0.00
2024-03-28T03:55:35.307Z,0.02
2024-03-28T03:56:35.170Z,0.00
2024-03-28T03:57:35.523Z,0.01
2024-03-28T03:58:35.869Z,0.00
2024-03-28T03:59:35.166Z,0.00
2024-03-28T04:00:35.519Z,0.00
2024-03-28T04:01:35.847Z,0.02
2024-03-28T04:02:35.158Z,0.01
2024-03-28T04:03:35.543Z,0.01
2024-03-28T04:04:35.861Z,0.02
2024-03-28T04:05:35.180Z,0.00
2024-03-28T04:06:35.519Z,0.02
2024-03-28T04:07:35.886Z,0.00
2024-03-28T04:08:35.219Z,0.00
2024-03-28T04:09:35.550Z,0.00
2024-03-28T04:10:35.892Z,0.02
2024-03-28T04:11:35.195Z,0.00
2024-03-28T04:12:35.561Z,0.02
2024-03-28T04:13:34.823Z,0.06
2024-03-28T04:14:36.845Z,0.00
2024-03-28T04:15:35.507Z,0.00
2024-03-28T04:16:34.789Z,0.02
2024-03-28T04:17:35.157Z,0.00
2024-03-28T04:18:35.470Z,0.02
2024-03-28T04:19:34.780Z,0.02
2024-03-28T04:20:35.144Z,0.02
2024-03-28T04:21:35.483Z,0.00
2024-03-28T04:22:34.758Z,0.00
2024-03-28T04:23:35.131Z,0.00
2024-03-28T04:24:35.467Z,0.02
2024-03-28T04:25:35.704Z,0.00
2024-03-28T04:26:35.135Z,0.02
2024-03-28T04:27:35.446Z,0.01
2024-03-28T04:28:34.733Z,0.01
2024-03-28T04:29:35.446Z,0.01
2024-03-28T04:30:35.403Z,0.01
2024-03-28T04:31:34.683Z,0.01
2024-03-28T04:32:35.082Z,0.05
2024-03-28T04:33:35.429Z,0.11
2024-03-28T04:34:34.710Z,0.03
2024-03-28T04:35:35.095Z,0.10
2024-03-28T04:36:35.422Z,0.05
2024-03-28T04:37:34.708Z,0.03
2024-03-28T04:38:35.039Z,0.06
2024-03-28T04:39:35.374Z,0.08
2024-03-28T04:40:34.634Z,0.04
2024-03-28T04:41:34.972Z,0.06
2024-03-28T04:42:35.301Z,0.20
2024-03-28T04:43:37.429Z,0.21
2024-03-28T04:44:34.959Z,0.10
2024-03-28T04:45:35.246Z,0.24
2024-03-28T04:46:34.480Z,0.29
2024-03-28T04:47:34.856Z,0.26
2024-03-28T04:48:35.149Z,0.33
2024-03-28T04:49:35.126Z,0.33
2024-03-28T04:50:34.732Z,0.50
2024-03-28T04:51:35.121Z,0.46
2024-03-28T04:52:34.364Z,0.45
2024-03-28T04:53:34.697Z,0.60
2024-03-28T04:54:35.010Z,0.59
2024-03-28T04:55:34.299Z,0.95
2024-03-28T04:56:34.632Z,0.86
2024-03-28T04:57:34.929Z,1.03
2024-03-28T04:58:35.282Z,1.25
2024-03-28T04:59:34.517Z,1.46
2024-03-28T05:00:34.863Z,1.73
2024-03-28T05:01:35.190Z,2.35
2024-03-28T05:02:34.481Z,2.41
2024-03-28T05:03:34.835Z,2.84
2024-03-28T05:04:35.122Z,3.34
2024-03-28T05:05:34.419Z,3.92
2024-03-28T05:06:34.736Z,4.54
2024-03-28T05:07:35.079Z,5.33
2024-03-28T05:08:34.382Z,6.16
2024-03-28T05:09:34.694Z,7.52
2024-03-28T05:10:35.068Z,9.37
2024-03-28T05:11:34.369Z,10.95
2024-03-28T05:12:34.753Z,13.14
2024-03-28T05:13:35.074Z,15.86
2024-03-28T05:14:34.391Z,18.66
2024-03-28T05:15:34.747Z,21.81
2024-03-28T05:16:34.010Z,25.12
2024-03-28T05:17:34.395Z,28.75
2024-03-28T05:18:34.739Z,32.54
2024-03-28T05:19:34.064Z,36.65
2024-03-28T05:20:34.434Z,41.15
2024-03-28T05:21:34.787Z,46.64
2024-03-28T05:22:34.080Z,52.52
2024-03-28T05:23:34.423Z,58.41
2024-03-28T05:24:34.783Z,65.47
2024-03-28T05:25:34.086Z,73.01
2024-03-28T05:26:34.421Z,81.62
2024-03-28T05:27:34.774Z,90.53
2024-03-28T05:28:34.107Z,99.55
2024-03-28T05:29:34.424Z,104.45
2024-03-28T05:30:34.826Z,107.38
2024-03-28T05:31:34.108Z,118.27
2024-03-28T05:32:34.472Z,128.54
2024-03-28T05:33:34.849Z,141.81
2024-03-28T05:34:34.144Z,140.94
2024-03-28T05:35:34.517Z,139.98
2024-03-28T05:36:33.834Z,147.85
2024-03-28T05:37:34.147Z,156.84
2024-03-28T05:38:34.562Z,166.75
2024-03-28T05:39:33.829Z,175.72
2024-03-28T05:40:34.164Z,182.78
2024-03-28T05:41:34.535Z,190.17
2024-03-28T05:42:33.955Z,198.20
2024-03-28T05:43:35.082Z,205.88
2024-03-28T05:44:34.462Z,212.17
2024-03-28T05:45:33.804Z,218.10
2024-03-28T05:46:34.129Z,223.56
2024-03-28T05:47:34.461Z,228.28
2024-03-28T05:48:33.737Z,231.37
2024-03-28T05:49:34.154Z,234.01
2024-03-28T05:50:34.435Z,236.95
2024-03-28T05:51:33.727Z,239.00
2024-03-28T05:52:34.141Z,240.92
2024-03-28T05:53:34.392Z,238.37
2024-03-28T05:54:33.696Z,237.66
2024-03-28T05:55:34.024Z,236.41
2024-03-28T05:56:34.367Z,233.37
2024-03-28T05:57:33.692Z,231.40
2024-03-28T05:58:33.970Z,227.96
2024-03-28T05:59:34.308Z,226.54
2024-03-28T06:00:33.600Z,222.89
2024-03-28T06:01:33.956Z,222.43
2024-03-28T06:02:34.405Z,227.38
2024-03-28T06:03:33.616Z,231.54
2024-03-28T06:04:33.907Z,236.05
2024-03-28T06:05:34.255Z,240.10
2024-03-28T06:06:33.529Z,244.29
2024-03-28T06:07:33.891Z,248.37
2024-03-28T06:08:34.248Z,254.01
2024-03-28T06:09:33.593Z,260.75
2024-03-28T06:10:33.887Z,268.54
2024-03-28T06:11:34.172Z,278.40
2024-03-28T06:12:33.488Z,288.00
2024-03-28T06:13:33.816Z,296.66
2024-03-28T06:14:34.207Z,305.08
2024-03-28T06:15:33.562Z,312.47
2024-03-28T06:16:33.847Z,320.66
2024-03-28T06:17:34.190Z,345.65
2024-03-28T06:18:33.507Z,353.59
2024-03-28T06:19:33.837Z,363.78
2024-03-28T06:20:34.164Z,375.19
2024-03-28T06:21:33.480Z,385.29
2024-03-28T06:22:33.812Z,399.10
2024-03-28T06:23:34.144Z,410.58
2024-03-28T06:24:33.475Z,424.68
2024-03-28T06:25:33.773Z,428.44
2024-03-28T06:26:34.183Z,307.84
2024-03-28T06:27:33.322Z,374.25
2024-03-28T06:28:33.548Z,265.95
2024-03-28T06:29:33.893Z,249.81
2024-03-28T06:30:33.163Z,246.45
2024-03-28T06:31:33.527Z,244.51
2024-03-28T06:32:33.794Z,227.90
2024-03-28T06:33:33.143Z,230.16
2024-03-28T06:34:33.379Z,223.78
2024-03-28T06:35:33.629Z,197.45
2024-03-28T06:36:33.954Z,180.85
2024-03-28T06:37:33.207Z,169.26
2024-03-28T06:38:33.545Z,162.97
2024-03-28T06:39:33.764Z,162.51
2024-03-28T06:40:33.092Z,156.61
2024-03-28T06:41:33.403Z,154.97
2024-03-28T06:42:33.709Z,162.84
2024-03-28T06:43:33.011Z,148.46
2024-03-28T06:44:33.429Z,151.73
2024-03-28T06:45:33.620Z,156.53
2024-03-28T06:46:32.949Z,136.40
2024-03-28T06:47:33.253Z,127.25
2024-03-28T06:48:33.582Z,120.48
2024-03-28T06:49:33.856Z,114.90
2024-03-28T06:50:33.112Z,110.72
2024-03-28T06:51:33.441Z,106.12
2024-03-28T06:52:33.730Z,103.05
2024-03-28T06:53:33.009Z,100.17
2024-03-28T06:54:33.299Z,98.12
2024-03-28T06:55:33.619Z,97.15
2024-03-28T06:56:32.967Z,95.91
2024-03-28T06:57:33.210Z,94.55
2024-03-28T06:58:33.510Z,92.86
2024-03-28T06:59:32.728Z,91.80
2024-03-28T07:00:33.072Z,91.19
2024-03-28T07:01:33.370Z,90.21
2024-03-28T07:02:33.707Z,89.46
2024-03-28T07:03:33.083Z,89.16
2024-03-28T07:04:33.315Z,88.97
2024-03-28T07:05:33.617Z,88.71
2024-03-28T07:06:32.922Z,88.21
2024-03-28T07:07:34.268Z,87.93
2024-03-28T07:08:33.694Z,87.39
2024-03-28T07:09:32.851Z,86.86
2024-03-28T07:10:33.238Z,86.05
2024-03-28T07:11:33.530Z,84.68
2024-03-28T07:12:32.835Z,82.94
2024-03-28T07:13:33.148Z,80.18
2024-03-28T07:14:33.459Z,77.20
2024-03-28T07:15:32.760Z,73.61
2024-03-28T07:16:33.132Z,70.70
2024-03-28T07:17:33.398Z,70.03
2024-03-28T07:18:32.765Z,69.80
2024-03-28T07:19:33.092Z,68.97
2024-03-28T07:20:33.351Z,68.65
2024-03-28T07:21:32.618Z,70.47
2024-03-28T07:22:32.961Z,70.87
2024-03-28T07:23:33.278Z,70.08
2024-03-28T07:24:32.578Z,71.85
2024-03-28T07:25:32.824Z,73.98
2024-03-28T07:26:33.107Z,75.48
2024-03-28T07:27:32.428Z,78.39
2024-03-28T07:28:32.739Z,82.72
2024-03-28T07:29:33.040Z,87.23
2024-03-28T07:30:32.393Z,90.06
2024-03-28T07:31:32.656Z,91.22
2024-03-28T07:32:32.995Z,90.71
2024-03-28T07:33:33.263Z,92.22
2024-03-28T07:34:32.534Z,94.13
2024-03-28T07:35:32.904Z,93.76
2024-03-28T07:36:34.127Z,92.89
2024-03-28T07:37:32.433Z,92.56
2024-03-28T07:38:32.725Z,94.10
2024-03-28T07:39:33.027Z,98.10
2024-03-28T07:40:32.284Z,97.82
2024-03-28T07:41:32.603Z,101.97
2024-03-28T07:42:32.959Z,106.16
2024-03-28T07:43:32.216Z,105.51
2024-03-28T07:44:32.574Z,108.06
2024-03-28T07:45:32.823Z,116.88
2024-03-28T07:46:33.172Z,127.88
2024-03-28T07:47:34.103Z,136.16
2024-03-28T07:48:32.721Z,145.09
2024-03-28T07:49:33.072Z,157.75
2024-03-28T07:50:32.335Z,161.75
2024-03-28T07:51:32.619Z,162.39
2024-03-28T07:52:33.024Z,160.52
2024-03-28T07:53:32.341Z,161.34
2024-03-28T07:54:35.723Z,165.85
2024-03-28T07:55:32.950Z,167.54
2024-03-28T07:56:32.175Z,166.75
2024-03-28T07:57:32.487Z,165.10
2024-03-28T07:58:32.785Z,163.61
2024-03-28T07:59:32.059Z,159.00
2024-03-28T08:00:32.427Z,147.46
2024-03-28T08:01:32.742Z,140.49
2024-03-28T08:02:31.998Z,137.27
2024-03-28T08:03:32.376Z,133.11
2024-03-28T08:04:32.657Z,128.22
2024-03-28T08:05:31.917Z,123.76
2024-03-28T08:06:32.263Z,119.49
2024-03-28T08:07:32.618Z,113.76
2024-03-28T08:08:31.890Z,108.69
2024-03-28T08:09:32.182Z,104.67
2024-03-28T08:10:32.550Z,104.24
2024-03-28T08:11:31.789Z,106.84
2024-03-28T08:12:32.158Z,113.25
2024-03-28T08:13:32.400Z,121.78
2024-03-28T08:14:32.726Z,133.24
2024-03-28T08:15:32.001Z,145.31
2024-03-28T08:16:32.344Z,159.28
2024-03-28T08:17:32.708Z,171.62
2024-03-28T08:18:31.930Z,185.40
2024-03-28T08:19:32.279Z,196.57
2024-03-28T08:20:32.599Z,204.63
2024-03-28T08:21:32.869Z,207.74
2024-03-28T08:22:32.268Z,197.20
2024-03-28T08:23:32.584Z,185.00
2024-03-28T08:24:31.791Z,166.48
2024-03-28T08:25:32.149Z,155.15
2024-03-28T08:26:32.429Z,139.07
2024-03-28T08:27:31.685Z,135.62
2024-03-28T08:28:32.077Z,138.69
2024-03-28T08:29:32.328Z,142.56
2024-03-28T08:30:31.612Z,152.30
2024-03-28T08:31:31.957Z,158.72
2024-03-28T08:32:32.274Z,154.59
2024-03-28T08:33:31.530Z,151.66
2024-03-28T08:34:31.924Z,152.83
2024-03-28T08:35:32.214Z,150.61
2024-03-28T08:36:31.464Z,152.99
2024-03-28T08:37:31.854Z,161.72
2024-03-28T08:38:32.121Z,161.35
2024-03-28T08:39:31.418Z,153.55
2024-03-28T08:40:31.776Z,156.08
2024-03-28T08:41:32.081Z,147.77
2024-03-28T08:42:31.366Z,142.93
2024-03-28T08:43:31.766Z,145.54
2024-03-28T08:44:31.991Z,151.72
2024-03-28T08:45:32.291Z,158.94
2024-03-28T08:46:31.589Z,161.12
2024-03-28T08:47:31.891Z,166.16
2024-03-28T08:48:32.258Z,193.27
2024-03-28T08:49:31.528Z,239.45
2024-03-28T08:50:31.840Z,295.94
2024-03-28T08:51:32.170Z,371.13
2024-03-28T08:52:31.457Z,417.94
2024-03-28T08:53:31.767Z,446.81
2024-03-28T08:54:32.083Z,454.90
2024-03-28T08:55:31.434Z,451.55
2024-03-28T08:56:33.000Z,444.03
2024-03-28T08:57:32.022Z,443.39
2024-03-28T08:58:31.354Z,455.23
2024-03-28T08:59:31.634Z,471.69
2024-03-28T09:00:32.073Z,483.64
2024-03-28T09:01:31.270Z,484.10
2024-03-28T09:02:31.566Z,479.69
2024-03-28T09:03:31.860Z,474.52
2024-03-28T09:04:32.106Z,465.86
2024-03-28T09:05:31.459Z,455.61
2024-03-28T09:06:31.783Z,446.25
2024-03-28T09:07:31.077Z,433.35
2024-03-28T09:08:31.381Z,407.21
2024-03-28T09:09:31.694Z,411.04
2024-03-28T09:10:33.756Z,424.78
2024-03-28T09:11:31.307Z,429.41
2024-03-28T09:12:31.595Z,414.41
2024-03-28T09:13:31.932Z,395.45
2024-03-28T09:14:31.184Z,371.25
2024-03-28T09:15:31.470Z,328.64
2024-03-28T09:16:31.838Z,299.16
2024-03-28T09:17:31.048Z,268.97
2024-03-28T09:18:31.376Z,255.83
2024-03-28T09:19:31.682Z,240.74
2024-03-28T09:20:30.928Z,224.65
2024-03-28T09:21:31.238Z,218.61
2024-03-28T09:22:31.563Z,203.21
2024-03-28T09:23:31.865Z,179.54
2024-03-28T09:24:31.138Z,167.02
2024-03-28T09:25:31.440Z,150.65
2024-03-28T09:26:31.688Z,137.35
2024-03-28T09:27:30.991Z,130.30
2024-03-28T09:28:31.306Z,135.56
2024-03-28T09:29:31.590Z,151.53
2024-03-28T09:30:30.832Z,139.69
2024-03-28T09:31:31.154Z,128.49
2024-03-28T09:32:31.566Z,117.06
2024-03-28T09:33:30.732Z,117.01
2024-03-28T09:34:31.080Z,123.67
2024-03-28T09:35:31.349Z,115.03
2024-03-28T09:36:31.640Z,120.36
2024-03-28T09:37:30.961Z,117.99
2024-03-28T09:38:31.229Z,95.72
2024-03-28T09:39:31.558Z,98.54
2024-03-28T09:40:30.847Z,105.09
2024-03-28T09:41:31.124Z,100.82
2024-03-28T09:42:31.449Z,98.27
2024-03-28T09:43:30.719Z,103.33
2024-03-28T09:44:31.043Z,105.73
2024-03-28T09:45:31.344Z,109.65
2024-03-28T09:46:30.619Z,128.33
2024-03-28T09:47:30.891Z,159.97
2024-03-28T09:48:31.252Z,182.27
2024-03-28T09:49:30.517Z,166.53
2024-03-28T09:50:30.851Z,160.30
2024-03-28T09:51:31.166Z,164.12
2024-03-28T09:52:30.486Z,175.56
2024-03-28T09:53:30.770Z,173.13
2024-03-28T09:54:31.141Z,176.97
2024-03-28T09:55:31.493Z,181.47
2024-03-28T09:56:30.709Z,191.58
2024-03-28T09:57:31.064Z,222.03
2024-03-28T09:58:30.354Z,248.84
2024-03-28T09:59:30.690Z,283.63
2024-03-28T10:00:31.043Z,320.78
2024-03-28T10:01:30.317Z,329.30
2024-03-28T10:02:30.627Z,327.14
2024-03-28T10:03:30.948Z,352.86
2024-03-28T10:04:31.283Z,363.36
2024-03-28T10:05:30.563Z,374.34
2024-03-28T10:06:30.898Z,377.63
2024-03-28T10:07:31.204Z,370.08
2024-03-28T10:08:30.455Z,335.10
2024-03-28T10:09:30.806Z,344.66
2024-03-28T10:10:31.144Z,468.26
2024-03-28T10:11:30.439Z,511.84
2024-03-28T10:12:30.757Z,569.09
2024-03-28T10:13:31.069Z,613.62
2024-03-28T10:14:30.378Z,615.05
2024-03-28T10:15:30.757Z,617.37
2024-03-28T10:16:31.046Z,628.64
2024-03-28T10:17:30.367Z,628.06
2024-03-28T10:18:30.640Z,624.16
2024-03-28T10:19:30.970Z,615.13
2024-03-28T10:20:30.226Z,607.06
2024-03-28T10:21:30.565Z,618.04
2024-03-28T10:22:30.903Z,617.36
2024-03-28T10:23:30.169Z,611.79
2024-03-28T10:24:30.455Z,618.17
2024-03-28T10:25:30.773Z,637.02
2024-03-28T10:26:30.055Z,658.01
2024-03-28T10:27:30.380Z,695.93
2024-03-28T10:28:30.742Z,743.62
2024-03-28T10:29:29.985Z,780.11
2024-03-28T10:30:30.359Z,838.61
2024-03-28T10:31:30.566Z,963.42
2024-03-28T10:32:30.875Z,892.81
2024-03-28T10:33:30.153Z,1070.12
2024-03-28T10:34:30.512Z,934.29
2024-03-28T10:35:30.764Z,811.42
2024-03-28T10:36:30.047Z,851.63
2024-03-28T10:37:36.790Z,1075.37
2024-03-28T10:38:31.607Z,948.26
2024-03-28T10:39:29.919Z,795.85
2024-03-28T10:40:30.192Z,776.18
2024-03-28T10:41:30.470Z,759.32
2024-03-28T10:42:30.770Z,761.68
2024-03-28T10:43:29.993Z,1151.14
2024-03-28T10:44:30.301Z,832.84
2024-03-28T10:45:30.558Z,771.69
2024-03-28T10:46:29.807Z,684.86
2024-03-28T10:47:30.088Z,983.43
2024-03-28T10:48:30.328Z,881.24
2024-03-28T10:49:31.626Z,654.53
2024-03-28T10:50:29.859Z,778.07
2024-03-28T10:51:30.163Z,608.36
2024-03-28T10:52:30.454Z,586.47
2024-03-28T10:53:29.687Z,596.60
2024-03-28T10:54:29.937Z,602.08
2024-03-28T10:55:32.162Z,583.14
2024-03-28T10:56:30.535Z,658.35
2024-03-28T10:57:29.821Z,836.40
2024-03-28T10:58:30.072Z,781.81
2024-03-28T10:59:30.329Z,790.49
2024-03-28T11:00:29.591Z,730.69
2024-03-28T11:01:31.567Z,712.89
2024-03-28T11:02:30.186Z,702.38
2024-03-28T11:03:30.486Z,720.49
2024-03-28T11:04:29.735Z,741.55
2024-03-28T11:05:30.019Z,781.86
2024-03-28T11:06:30.333Z,764.30
2024-03-28T11:07:29.625Z,770.36
2024-03-28T11:08:30.802Z,842.25
2024-03-28T11:09:30.147Z,1022.44
2024-03-28T11:10:30.490Z,1369.06
2024-03-28T11:11:29.694Z,1450.80
2024-03-28T11:12:30.046Z,1325.65
2024-03-28T11:13:30.245Z,1435.96
2024-03-28T11:14:29.449Z,1276.23
2024-03-28T11:15:29.712Z,1051.03
2024-03-28T11:16:29.965Z,920.25
2024-03-28T11:17:30.295Z,968.90
2024-03-28T11:18:29.559Z,1231.29
2024-03-28T11:19:31.874Z,1434.76
2024-03-28T11:20:30.031Z,1119.34
2024-03-28T11:21:29.299Z,1440.80
2024-03-28T11:22:29.540Z,1418.08
2024-03-28T11:23:30.759Z,1386.51
2024-03-28T11:24:30.058Z,1412.52
2024-03-28T11:25:29.291Z,1315.46
2024-03-28T11:26:29.526Z,1316.47
2024-03-28T11:27:29.809Z,1379.67
2024-03-28T11:28:30.083Z,1357.58
2024-03-28T11:29:29.259Z,1358.68
2024-03-28T11:30:29.556Z,1260.77
2024-03-28T11:31:29.791Z,1029.80
2024-03-28T11:32:30.071Z,1197.03
2024-03-28T11:33:29.308Z,1166.43
2024-03-28T11:34:29.587Z,1461.65
2024-03-28T11:35:29.843Z,1448.57
2024-03-28T11:36:29.085Z,1426.63
2024-03-28T11:37:29.365Z,1372.76
2024-03-28T11:38:29.622Z,1340.75
2024-03-28T11:39:29.885Z,1416.78
2024-03-28T11:40:29.108Z,1462.36
2024-03-28T11:41:29.360Z,1452.49
2024-03-28T11:42:35.867Z,1442.49
2024-03-28T11:43:30.980Z,1441.46
2024-03-28T11:44:29.165Z,1436.70
2024-03-28T11:45:29.401Z,1458.14
2024-03-28T11:46:29.675Z,1473.83
2024-03-28T11:47:31.931Z,1079.18
2024-03-28T11:48:29.179Z,924.33
2024-03-28T11:49:29.454Z,1385.28
2024-03-28T11:50:31.555Z,838.11
2024-03-28T11:51:28.899Z,1024.16
2024-03-28T11:52:29.174Z,1010.01
2024-03-28T11:53:29.446Z,943.09
2024-03-28T11:54:29.744Z,667.64
2024-03-28T11:55:28.954Z,721.37
2024-03-28T11:56:32.180Z,1578.72
2024-03-28T11:57:29.470Z,748.71
2024-03-28T11:58:29.730Z,665.09
2024-03-28T11:59:28.937Z,627.71
2024-03-28T12:00:29.209Z,631.93
2024-03-28T12:01:29.516Z,661.32
2024-03-28T12:02:29.747Z,1484.51
2024-03-28T12:03:28.981Z,650.11
2024-03-28T12:04:29.258Z,577.71
2024-03-28T12:05:29.522Z,561.17
2024-03-28T12:06:28.749Z,826.37
2024-03-28T12:07:28.980Z,621.01
2024-03-28T12:08:35.014Z,532.22
2024-03-28T12:09:30.491Z,499.82
2024-03-28T12:10:28.720Z,476.25
2024-03-28T12:11:29.011Z,522.55
2024-03-28T12:12:29.272Z,571.31
2024-03-28T12:13:29.568Z,592.26
2024-03-28T12:14:28.790Z,581.74
2024-03-28T12:15:29.063Z,663.36
2024-03-28T12:16:29.356Z,671.09
2024-03-28T12:17:28.595Z,625.07
2024-03-28T12:18:28.877Z,583.63
2024-03-28T12:19:29.119Z,696.21
2024-03-28T12:20:29.465Z,764.79
2024-03-28T12:21:28.624Z,800.70
2024-03-28T12:22:28.979Z,724.89
2024-03-28T12:23:29.250Z,762.97
2024-03-28T12:24:29.533Z,707.68
2024-03-28T12:25:28.782Z,668.91
2024-03-28T12:26:32.492Z,637.79
2024-03-28T12:27:29.354Z,649.26
2024-03-28T12:28:28.538Z,714.80
2024-03-28T12:29:28.906Z,770.73
2024-03-28T12:30:29.141Z,815.31
2024-03-28T12:31:28.351Z,836.92
2024-03-28T12:32:28.680Z,862.29
2024-03-28T12:33:28.959Z,894.36
2024-03-28T12:34:29.213Z,903.43
2024-03-28T12:35:28.445Z,898.76
2024-03-28T12:36:33.233Z,891.32
2024-03-28T12:37:30.451Z,874.39
2024-03-28T12:38:28.289Z,876.53
2024-03-28T12:39:28.611Z,888.70
2024-03-28T12:40:28.921Z,890.58
2024-03-28T12:41:29.155Z,933.15
2024-03-28T12:42:28.403Z,1014.10
2024-03-28T12:43:28.653Z,1071.95
2024-03-28T12:44:28.927Z,1054.62
2024-03-28T12:45:28.232Z,1042.81
2024-03-28T12:46:28.508Z,1023.22
2024-03-28T12:47:28.807Z,933.84
2024-03-28T12:48:29.018Z,908.06
2024-03-28T12:49:28.254Z,897.25